Terminal Aerodrome Forecast
Issued by NWS

Home | Current Version | Previous Version | Text Only | Print | Product List | Glossary On
Versions: 1 2 3 4 5 6 7 8 9 10 11 12 13
000
FTUS42 TJSJ 221734
TAFJMZ
TAF
TJMZ 221734Z 2218/2318 28011KT P6SM VCTS SCT025CB BKN040
      TEMPO 2218/2222 VRB15G24KT 3SM TSRA BKN025CB
     FM222300 07005KT P6SM FEW030 FEW060 SCT120
     FM230300 00000KT P6SM FEW120
     FM231450 30010KT P6SM VCSH SCT025 SCT040
      AMD NOT SKED=

USA.gov is the U.S. government's official web portal to all federal, state and local government web resources and services.